Time,TemperatureF,DewpointF,PressureIn,WindDirection,WindDirectionDegrees,WindSpeedMPH,WindSpeedGustMPH,Humidity,HourlyPrecipIn,Conditions,Clouds,dailyrainin,SolarRadiationWatts/m^2,SoftwareType,DateUTC
2013-10-12 00:14:00,80.0,67.0,-100.00,East,93,8.0,15.0,65,0.00,,,0.12,0.000000,,2013-10-12 04:14:00,
2013-10-12 00:24:00,80.0,67.0,-100.00,East,93,8.0,15.0,65,0.00,,,0.12,0.000000,,2013-10-12 04:24:00,
2013-10-12 00:33:00,80.0,67.0,-100.00,East,93,8.0,15.0,65,0.00,,,0.12,0.000000,,2013-10-12 04:33:00,
2013-10-12 01:13:00,80.0,67.0,-100.00,East,100,6.0,15.0,65,0.00,,,0.12,0.000000,,2013-10-12 05:13:00,
2013-10-12 01:23:00,80.0,67.0,-100.00,East,100,6.0,15.0,65,0.00,,,0.12,0.000000,,2013-10-12 05:23:00,
2013-10-12 01:34:00,80.0,67.0,-100.00,East,100,6.0,15.0,65,0.00,,,0.12,0.000000,,2013-10-12 05:34:00,
2013-10-12 02:12:00,80.0,66.0,-100.00,ESE,103,6.0,14.0,63,0.00,,,0.00,0.000000,,2013-10-12 06:12:00,
2013-10-12 02:22:00,80.0,66.0,-100.00,ESE,103,6.0,14.0,63,0.00,,,0.00,0.000000,,2013-10-12 06:22:00,
2013-10-12 02:32:00,80.0,66.0,-100.00,ESE,103,6.0,14.0,63,0.00,,,0.00,0.000000,,2013-10-12 06:32:00,
2013-10-12 03:12:00,80.0,68.0,-100.00,East,87,7.0,16.0,66,0.00,,,0.00,0.000000,,2013-10-12 07:12:00,
2013-10-12 03:22:00,80.0,68.0,-100.00,East,87,7.0,16.0,66,0.00,,,0.00,0.000000,,2013-10-12 07:22:00,
2013-10-12 03:32:00,80.0,68.0,-100.00,East,87,7.0,16.0,66,0.00,,,0.00,0.000000,,2013-10-12 07:32:00,
2013-10-12 04:12:00,80.0,68.0,-100.00,East,95,6.0,11.0,68,0.00,,,0.00,0.000000,,2013-10-12 08:12:00,
2013-10-12 04:23:00,80.0,68.0,-100.00,East,95,6.0,11.0,68,0.00,,,0.00,0.000000,,2013-10-12 08:23:00,
2013-10-12 04:32:00,80.0,68.0,-100.00,East,95,6.0,11.0,68,0.00,,,0.00,0.000000,,2013-10-12 08:32:00,
2013-10-12 05:11:00,79.0,67.0,-100.00,East,91,6.0,13.0,67,0.00,,,0.00,0.000000,,2013-10-12 09:11:00,
2013-10-12 05:22:00,79.0,67.0,-100.00,East,91,6.0,13.0,67,0.00,,,0.00,0.000000,,2013-10-12 09:22:00,
2013-10-12 05:33:00,79.0,67.0,-100.00,East,91,6.0,13.0,67,0.00,,,0.00,0.000000,,2013-10-12 09:33:00,
2013-10-12 06:12:00,79.0,67.0,-100.00,East,79,6.0,11.0,66,0.00,,,0.00,0.000000,,2013-10-12 10:12:00,
2013-10-12 06:23:00,79.0,67.0,-100.00,East,79,6.0,11.0,66,0.00,,,0.00,0.000000,,2013-10-12 10:23:00,
2013-10-12 06:32:00,79.0,67.0,-100.00,East,79,6.0,11.0,66,0.00,,,0.00,0.000000,,2013-10-12 10:32:00,
2013-10-12 07:12:00,79.0,67.0,-100.00,East,81,7.0,12.0,67,0.00,,,0.00,0.000000,,2013-10-12 11:12:00,
2013-10-12 07:22:00,79.0,67.0,-100.00,East,81,7.0,12.0,67,0.00,,,0.00,0.000000,,2013-10-12 11:22:00,
2013-10-12 07:33:00,79.0,67.0,-100.00,East,81,7.0,12.0,67,0.00,,,0.00,0.000000,,2013-10-12 11:33:00,
2013-10-12 08:12:00,79.0,67.0,-100.00,East,88,6.0,11.0,66,0.00,,,0.00,2.000000,,2013-10-12 12:12:00,
2013-10-12 08:22:00,79.0,67.0,-100.00,East,88,6.0,11.0,66,0.00,,,0.00,2.000000,,2013-10-12 12:22:00,
2013-10-12 08:32:00,79.0,67.0,-100.00,East,88,6.0,11.0,66,0.00,,,0.00,2.000000,,2013-10-12 12:32:00,
2013-10-12 09:11:00,82.0,67.0,-100.00,East,82,5.0,11.0,60,0.00,,,0.00,85.000000,,2013-10-12 13:11:00,
2013-10-12 09:22:00,82.0,67.0,-100.00,East,82,5.0,11.0,60,0.00,,,0.00,85.000000,,2013-10-12 13:22:00,
2013-10-12 09:32:00,82.0,67.0,-100.00,East,82,5.0,11.0,60,0.00,,,0.00,85.000000,,2013-10-12 13:32:00,
2013-10-12 10:12:00,84.0,66.0,-100.00,ENE,75,6.0,12.0,54,0.00,,,0.00,312.000000,,2013-10-12 14:12:00,
2013-10-12 10:21:00,84.0,66.0,-100.00,ENE,75,6.0,12.0,54,0.00,,,0.00,312.000000,,2013-10-12 14:21:00,
2013-10-12 10:32:00,84.0,66.0,-100.00,ENE,75,6.0,12.0,54,0.00,,,0.00,312.000000,,2013-10-12 14:32:00,
2013-10-12 11:11:00,85.0,65.0,-100.00,NE,54,6.0,12.0,51,0.00,,,0.00,505.000000,,2013-10-12 15:11:00,
2013-10-12 11:22:00,85.0,65.0,-100.00,NE,54,6.0,12.0,51,0.00,,,0.00,505.000000,,2013-10-12 15:22:00,
2013-10-12 11:33:00,85.0,65.0,-100.00,NE,54,6.0,12.0,51,0.00,,,0.00,505.000000,,2013-10-12 15:33:00,
2013-10-12 12:13:00,86.0,66.0,-100.00,NE,53,6.0,11.0,52,0.00,,,0.00,656.000000,,2013-10-12 16:13:00,
2013-10-12 12:23:00,86.0,66.0,-100.00,NE,53,6.0,11.0,52,0.00,,,0.00,656.000000,,2013-10-12 16:23:00,
2013-10-12 12:33:00,86.0,66.0,-100.00,NE,53,6.0,11.0,52,0.00,,,0.00,656.000000,,2013-10-12 16:33:00,
2013-10-12 13:13:00,86.0,64.0,-100.00,NE,53,7.0,13.0,48,0.00,,,0.00,759.000000,,2013-10-12 17:13:00,
2013-10-12 13:23:00,86.0,64.0,-100.00,NE,53,7.0,13.0,48,0.00,,,0.00,759.000000,,2013-10-12 17:23:00,
2013-10-12 13:34:00,86.0,64.0,-100.00,NE,53,7.0,13.0,48,0.00,,,0.00,759.000000,,2013-10-12 17:34:00,
2013-10-12 14:12:00,86.0,65.0,-100.00,ENE,66,7.0,12.0,49,0.00,,,0.00,795.000000,,2013-10-12 18:12:00,
2013-10-12 14:22:00,86.0,65.0,-100.00,ENE,66,7.0,12.0,49,0.00,,,0.00,795.000000,,2013-10-12 18:22:00,
2013-10-12 14:32:00,86.0,65.0,-100.00,ENE,66,7.0,12.0,49,0.00,,,0.00,795.000000,,2013-10-12 18:32:00,
2013-10-12 15:11:00,87.0,65.0,-100.00,ENE,64,6.0,12.0,49,0.00,,,0.00,763.000000,,2013-10-12 19:11:00,
2013-10-12 15:22:00,87.0,65.0,-100.00,ENE,64,6.0,12.0,49,0.00,,,0.00,763.000000,,2013-10-12 19:22:00,
2013-10-12 15:32:00,87.0,65.0,-100.00,ENE,64,6.0,12.0,49,0.00,,,0.00,763.000000,,2013-10-12 19:32:00,
2013-10-12 16:12:00,87.0,64.0,-100.00,ENE,60,5.0,9.0,47,0.00,,,0.00,668.000000,,2013-10-12 20:12:00,
2013-10-12 16:22:00,87.0,64.0,-100.00,ENE,60,5.0,9.0,47,0.00,,,0.00,668.000000,,2013-10-12 20:22:00,
2013-10-12 16:32:00,87.0,64.0,-100.00,ENE,60,5.0,9.0,47,0.00,,,0.00,668.000000,,2013-10-12 20:32:00,
2013-10-12 17:11:00,86.0,65.0,-100.00,ENE,59,5.0,9.0,49,0.00,,,0.00,520.000000,,2013-10-12 21:11:00,
2013-10-12 17:22:00,86.0,65.0,-100.00,ENE,59,5.0,9.0,49,0.00,,,0.00,520.000000,,2013-10-12 21:22:00,
2013-10-12 17:35:00,86.0,65.0,-100.00,ENE,59,5.0,9.0,49,0.00,,,0.00,520.000000,,2013-10-12 21:35:00,
2013-10-12 18:13:00,85.0,65.0,-100.00,ENE,62,4.0,9.0,52,0.00,,,0.00,335.000000,,2013-10-12 22:13:00,
2013-10-12 18:25:00,85.0,65.0,-100.00,ENE,62,4.0,9.0,52,0.00,,,0.00,335.000000,,2013-10-12 22:25:00,
2013-10-12 18:33:00,85.0,65.0,-100.00,ENE,62,4.0,9.0,52,0.00,,,0.00,335.000000,,2013-10-12 22:33:00,
2013-10-12 19:12:00,82.0,64.0,-100.00,East,81,4.0,9.0,55,0.00,,,0.00,138.000000,,2013-10-12 23:12:00,
2013-10-12 19:22:00,82.0,64.0,-100.00,East,81,4.0,9.0,55,0.00,,,0.00,138.000000,,2013-10-12 23:22:00,
2013-10-12 19:33:00,82.0,64.0,-100.00,East,81,4.0,9.0,55,0.00,,,0.00,138.000000,,2013-10-12 23:33:00,
2013-10-12 20:12:00,80.0,66.0,-100.00,East,87,4.0,7.0,62,0.00,,,0.00,7.000000,,2013-10-13 00:12:00,
2013-10-12 20:22:00,80.0,66.0,-100.00,East,87,4.0,7.0,62,0.00,,,0.00,7.000000,,2013-10-13 00:22:00,
2013-10-12 20:32:00,80.0,66.0,-100.00,East,87,4.0,7.0,62,0.00,,,0.00,7.000000,,2013-10-13 00:32:00,
2013-10-12 21:12:00,80.0,65.0,-100.00,East,91,5.0,8.0,61,0.00,,,0.00,0.000000,,2013-10-13 01:12:00,
2013-10-12 21:22:00,80.0,65.0,-100.00,East,91,5.0,8.0,61,0.00,,,0.00,0.000000,,2013-10-13 01:22:00,
2013-10-12 21:32:00,80.0,65.0,-100.00,East,91,5.0,8.0,61,0.00,,,0.00,0.000000,,2013-10-13 01:32:00,
2013-10-12 22:12:00,79.0,65.0,-100.00,East,86,3.0,8.0,63,0.00,,,0.00,0.000000,,2013-10-13 02:12:00,
2013-10-12 22:22:00,79.0,65.0,-100.00,East,86,3.0,8.0,63,0.00,,,0.00,0.000000,,2013-10-13 02:22:00,
2013-10-12 22:32:00,79.0,65.0,-100.00,East,86,3.0,8.0,63,0.00,,,0.00,0.000000,,2013-10-13 02:32:00,
2013-10-12 23:12:00,80.0,66.0,-100.00,East,96,4.0,7.0,63,0.00,,,0.00,0.000000,,2013-10-13 03:12:00,
2013-10-12 23:23:00,80.0,66.0,-100.00,East,96,4.0,7.0,63,0.00,,,0.00,0.000000,,2013-10-13 03:23:00,
2013-10-12 23:34:00,80.0,66.0,-100.00,East,96,4.0,7.0,63,0.00,,,0.00,0.000000,,2013-10-13 03:34:00,